Time;durP1;ratioP1;P1;durP2;ratioP2;P2;SDS_P1;SDS_P2;PMS_P1;PMS_P2;Temp;Humidity;BMP_temperature;BMP_pressure;BME280_temperature;BME280_humidity;BME280_pressure;Samples;Min_cycle;Max_cycle;Signal;HPM_P1;HPM_P2
2022/09/06 00:00:09;;;;;;;1.63;1.53;;;24.00;99.90;;;;;;4940361;28;20599;-78
2022/09/06 00:02:37;;;;;;;2.20;2.00;;;24.00;99.90;;;;;;4948167;28;20491;-79
2022/09/06 00:05:07;;;;;;;8.60;2.40;;;23.90;99.90;;;;;;4941013;28;20833;-79
2022/09/06 00:07:35;;;;;;;2.17;1.97;;;23.90;99.90;;;;;;4949222;28;20482;-79
2022/09/06 00:10:06;;;;;;;2.23;2.00;;;23.90;99.90;;;;;;4946958;28;20450;-78
2022/09/06 00:12:35;;;;;;;1.83;1.70;;;23.90;99.90;;;;;;4950172;28;20492;-79
2022/09/06 00:15:04;;;;;;;4.40;2.30;;;23.30;99.90;;;;;;4954481;28;22676;-79
2022/09/06 00:17:32;;;;;;;2.67;2.03;;;23.80;99.90;;;;;;4949441;28;20490;-78
2022/09/06 00:20:01;;;;;;;1.90;1.80;;;23.80;99.90;;;;;;4952688;28;20482;-80
2022/09/06 00:22:29;;;;;;;3.53;1.97;;;23.80;99.90;;;;;;4956961;28;20483;-78
2022/09/06 00:24:57;;;;;;;2.63;2.43;;;23.70;99.90;;;;;;4955448;28;21134;-79
2022/09/06 00:27:27;;;;;;;5.73;1.90;;;23.70;99.90;;;;;;4958603;28;20541;-79
2022/09/06 00:29:55;;;;;;;3.40;2.70;;;23.70;99.90;;;;;;4951947;28;20463;-79
2022/09/06 00:32:23;;;;;;;2.77;2.57;;;23.60;99.90;;;;;;4955541;28;20452;-79
2022/09/06 00:34:51;;;;;;;2.27;2.17;;;23.60;99.90;;;;;;4957283;28;21129;-78
2022/09/06 00:37:19;;;;;;;3.30;3.00;;;23.60;99.90;;;;;;4954385;28;20490;-78
2022/09/06 00:39:47;;;;;;;2.10;2.00;;;23.60;99.90;;;;;;4955651;28;20529;-79
2022/09/06 00:42:15;;;;;;;2.00;1.90;;;23.60;99.90;;;;;;4957180;28;21156;-78
2022/09/06 00:44:45;;;;;;;2.97;2.33;;;23.60;99.90;;;;;;4955414;28;20522;-79
2022/09/06 00:47:13;;;;;;;2.00;1.90;;;23.50;99.90;;;;;;4955465;28;20914;-78
2022/09/06 00:49:46;;;;;;;2.80;2.60;;;23.50;99.90;;;;;;4953527;28;20463;-78
2022/09/06 00:52:17;;;;;;;5.10;2.10;;;23.50;99.90;;;;;;4953351;28;20982;-79
2022/09/06 00:54:46;;;;;;;2.80;2.13;;;23.50;99.90;;;;;;4955224;28;20559;-78
2022/09/06 00:57:15;;;;;;;2.53;2.33;;;23.40;99.90;;;;;;4951973;28;20511;-78
2022/09/06 00:59:46;;;;;;;2.57;2.37;;;23.40;99.90;;;;;;4954657;28;20951;-79
2022/09/06 01:02:15;;;;;;;2.90;2.13;;;23.40;99.90;;;;;;4953420;28;20486;-79
2022/09/06 01:04:45;;;;;;;2.00;1.77;;;23.40;99.90;;;;;;4957886;28;20479;-79
2022/09/06 01:07:23;;;;;;;2.00;1.90;;;23.30;99.90;;;;;;4949434;28;21099;-79
2022/09/06 01:10:04;;;;;;;2.67;2.43;;;23.30;99.90;;;;;;4953450;28;20519;-78
2022/09/06 01:12:42;;;;;;;3.23;2.80;;;23.30;99.90;;;;;;4948417;28;21002;-78
2022/09/06 01:15:22;;;;;;;2.80;2.60;;;23.30;99.90;;;;;;4950096;28;20525;-79
2022/09/06 01:18:00;;;;;;;2.63;2.43;;;23.30;99.90;;;;;;4951524;28;20485;-78
2022/09/06 01:20:44;;;;;;;2.00;1.90;;;23.30;99.90;;;;;;4956998;28;20456;-79
2022/09/06 01:23:45;;;;;;;2.07;1.97;;;23.30;99.90;;;;;;4948367;28;20828;-79
2022/09/06 01:26:39;;;;;;;2.80;2.60;;;23.30;99.90;;;;;;4960392;28;20548;-79
2022/09/06 01:29:14;;;;;;;2.53;2.43;;;23.30;99.90;;;;;;4948051;28;20465;-79
2022/09/06 01:31:46;;;;;;;3.07;2.33;;;23.30;99.90;;;;;;4951210;28;20467;-79
2022/09/06 01:34:24;;;;;;;2.83;2.63;;;23.30;99.90;;;;;;4950080;28;20501;-77
2022/09/06 01:36:56;;;;;;;2.63;2.53;;;23.30;99.90;;;;;;4957244;28;20474;-78
2022/09/06 01:39:39;;;;;;;3.00;2.67;;;23.30;99.90;;;;;;4954558;28;20551;-78
2022/09/06 01:42:12;;;;;;;2.50;2.30;;;23.40;99.90;;;;;;4949000;28;20472;-78
2022/09/06 01:44:45;;;;;;;3.30;2.47;;;23.40;99.90;;;;;;4947412;28;20451;-78
2022/09/06 01:47:22;;;;;;;2.57;2.37;;;23.40;99.90;;;;;;4949417;28;20546;-78
2022/09/06 01:50:11;;;;;;;5.13;2.80;;;23.40;99.90;;;;;;4946042;28;20457;-78
2022/09/06 01:52:50;;;;;;;2.53;2.33;;;23.40;99.90;;;;;;4952463;28;20803;-78
2022/09/06 01:55:22;;;;;;;2.33;2.13;;;23.50;99.90;;;;;;4945369;28;20459;-77
2022/09/06 01:58:04;;;;;;;3.10;2.80;;;23.50;99.90;;;;;;4946550;28;20499;-79
2022/09/06 02:00:39;;;;;;;2.63;2.43;;;23.50;99.90;;;;;;4950898;28;20475;-78
2022/09/06 02:03:13;;;;;;;2.37;2.27;;;23.50;99.90;;;;;;4949229;28;20559;-78
2022/09/06 02:05:45;;;;;;;2.60;2.40;;;23.50;99.90;;;;;;4950224;28;20517;-79
2022/09/06 02:08:17;;;;;;;2.40;2.20;;;23.50;99.90;;;;;;4949388;28;20459;-78
2022/09/06 02:10:51;;;;;;;3.37;2.40;;;23.60;99.90;;;;;;4944392;28;20517;-78
2022/09/06 02:13:21;;;;;;;2.83;2.63;;;23.60;99.90;;;;;;4948621;28;20486;-77
2022/09/06 02:15:55;;;;;;;2.30;2.10;;;23.60;99.90;;;;;;4948715;28;20458;-78
2022/09/06 02:18:28;;;;;;;6.00;2.87;;;23.60;99.90;;;;;;4949746;28;20518;-78
2022/09/06 02:20:58;;;;;;;2.53;2.30;;;23.60;99.90;;;;;;4953456;28;20542;-78
2022/09/06 02:23:30;;;;;;;2.53;2.30;;;23.50;99.90;;;;;;4951122;28;21081;-79
2022/09/06 02:26:02;;;;;;;2.70;2.50;;;23.50;99.90;;;;;;4946861;28;20888;-79
2022/09/06 02:28:31;;;;;;;2.53;2.30;;;23.40;99.90;;;;;;4951078;28;20530;-79
2022/09/06 02:31:03;;;;;;;3.00;2.40;;;23.40;99.90;;;;;;4941521;28;21056;-78
2022/09/06 02:33:34;;;;;;;2.50;2.37;;;23.40;99.90;;;;;;4953928;28;20509;-78
2022/09/06 02:36:06;;;;;;;2.80;2.60;;;23.40;99.90;;;;;;4954616;28;20447;-79
2022/09/06 02:38:37;;;;;;;2.43;2.23;;;23.30;99.90;;;;;;4945317;28;20502;-79
2022/09/06 02:41:07;;;;;;;2.40;2.30;;;23.40;99.90;;;;;;4955041;28;20481;-79
2022/09/06 02:43:35;;;;;;;2.77;2.57;;;23.30;99.90;;;;;;4952178;28;21032;-78
2022/09/06 02:46:04;;;;;;;2.73;2.63;;;23.40;99.90;;;;;;4947902;28;20497;-78
2022/09/06 02:48:32;;;;;;;3.43;3.13;;;23.40;99.90;;;;;;4956613;28;20454;-78
2022/09/06 02:51:03;;;;;;;4.00;2.73;;;23.30;99.90;;;;;;4947240;28;20521;-78
2022/09/06 02:53:31;;;;;;;2.53;2.00;;;23.40;99.90;;;;;;4950340;28;20844;-78
2022/09/06 02:55:59;;;;;;;2.83;2.40;;;23.40;99.90;;;;;;4951748;28;20454;-78
2022/09/06 02:58:28;;;;;;;4.07;3.70;;;23.40;99.90;;;;;;4948736;28;20518;-78
2022/09/06 03:00:56;;;;;;;2.87;2.23;;;23.30;99.90;;;;;;4946218;28;20455;-79
2022/09/06 03:03:27;;;;;;;2.67;2.10;;;23.40;99.90;;;;;;4949250;28;20525;-79
2022/09/06 03:05:55;;;;;;;2.60;2.40;;;23.40;99.90;;;;;;4946276;28;20549;-79
2022/09/06 03:08:25;;;;;;;4.27;2.33;;;23.40;99.90;;;;;;4952448;28;20491;-79
2022/09/06 03:10:55;;;;;;;2.27;2.10;;;23.40;99.90;;;;;;4950537;28;20470;-78
2022/09/06 03:13:24;;;;;;;3.30;3.00;;;23.40;99.90;;;;;;4948892;28;20459;-79
2022/09/06 03:15:54;;;;;;;2.70;2.50;;;23.50;99.90;;;;;;4952538;28;20739;-79
2022/09/06 03:18:22;;;;;;;2.57;2.20;;;23.40;99.90;;;;;;4952591;28;20467;-78
2022/09/06 03:20:53;;;;;;;3.23;2.47;;;23.50;99.90;;;;;;4948207;28;20530;-78
2022/09/06 03:23:23;;;;;;;2.93;2.63;;;23.50;99.90;;;;;;4947865;28;20483;-79
2022/09/06 03:25:52;;;;;;;3.30;2.50;;;23.50;99.90;;;;;;4950989;28;20471;-78
2022/09/06 03:28:20;;;;;;;2.50;2.30;;;23.50;99.90;;;;;;4952207;28;20869;-78
2022/09/06 03:30:50;;;;;;;3.00;2.70;;;23.40;99.90;;;;;;4943914;28;20466;-78
2022/09/06 03:33:19;;;;;;;2.20;2.00;;;23.40;99.90;;;;;;4952391;28;20452;-79
2022/09/06 03:35:48;;;;;;;2.63;2.43;;;23.40;99.90;;;;;;4950389;28;20459;-79
2022/09/06 03:38:18;;;;;;;3.03;2.53;;;23.40;99.90;;;;;;4946278;28;20465;-79
2022/09/06 03:40:47;;;;;;;2.23;2.10;;;23.40;99.90;;;;;;4952352;28;21168;-79
2022/09/06 03:43:17;;;;;;;2.40;2.20;;;23.40;99.90;;;;;;4946951;28;20546;-79
2022/09/06 03:45:46;;;;;;;2.83;2.63;;;23.40;99.90;;;;;;4949953;28;20666;-79
2022/09/06 03:48:15;;;;;;;2.40;2.20;;;23.40;99.90;;;;;;4946057;28;20495;-79
2022/09/06 03:50:45;;;;;;;3.00;1.80;;;23.40;99.90;;;;;;4950250;28;20886;-78
2022/09/06 03:53:14;;;;;;;2.53;2.33;;;23.40;99.90;;;;;;4949424;28;20976;-79
2022/09/06 03:55:47;;;;;;;2.13;1.93;;;23.40;99.90;;;;;;4950542;28;21113;-79
2022/09/06 03:58:17;;;;;;;2.27;2.07;;;23.30;99.90;;;;;;4939767;28;20465;-79
2022/09/06 04:00:45;;;;;;;2.30;2.10;;;23.30;99.90;;;;;;4945264;28;20908;-79
2022/09/06 04:03:14;;;;;;;3.23;2.10;;;23.30;99.90;;;;;;4948085;28;20549;-78
2022/09/06 04:05:46;;;;;;;3.63;2.50;;;23.30;99.90;;;;;;4947221;28;20444;-79
2022/09/06 04:08:14;;;;;;;2.53;2.33;;;23.30;99.90;;;;;;4944534;28;20489;-79
2022/09/06 04:10:42;;;;;;;2.50;2.30;;;23.30;99.90;;;;;;4946349;28;20458;-79
2022/09/06 04:13:11;;;;;;;2.47;2.07;;;23.20;99.90;;;;;;4942780;28;20668;-78
2022/09/06 04:15:39;;;;;;;2.30;2.10;;;23.20;99.90;;;;;;4949788;28;20451;-78
2022/09/06 04:18:07;;;;;;;1.80;1.70;;;23.10;99.90;;;;;;4949850;28;20854;-78
2022/09/06 04:20:36;;;;;;;2.93;2.40;;;23.00;99.90;;;;;;4944961;28;20503;-78
2022/09/06 04:23:04;;;;;;;2.97;2.77;;;23.00;99.90;;;;;;4952020;28;20455;-80
2022/09/06 04:25:32;;;;;;;2.33;2.13;;;23.00;99.90;;;;;;4950182;28;21352;-79
2022/09/06 04:28:01;;;;;;;2.33;2.13;;;23.00;99.90;;;;;;4945657;28;20485;-79
2022/09/06 04:30:31;;;;;;;2.60;2.50;;;22.90;99.90;;;;;;4945382;28;20515;-79
2022/09/06 04:32:59;;;;;;;2.47;2.23;;;22.90;99.90;;;;;;4935290;28;20985;-79
2022/09/06 04:35:27;;;;;;;2.97;2.67;;;22.90;99.90;;;;;;4950102;28;21019;-78
2022/09/06 04:37:55;;;;;;;2.57;2.30;;;22.90;99.90;;;;;;4949746;28;20490;-79
2022/09/06 04:40:24;;;;;;;2.80;2.60;;;23.00;99.90;;;;;;4949375;28;20463;-79
2022/09/06 04:42:52;;;;;;;2.40;2.20;;;23.00;99.90;;;;;;4946195;28;20465;-79
2022/09/06 04:45:20;;;;;;;2.80;2.60;;;23.00;99.90;;;;;;4945916;28;20484;-79
2022/09/06 04:47:50;;;;;;;2.80;2.60;;;23.10;99.90;;;;;;4948377;28;20480;-78
2022/09/06 04:50:18;;;;;;;2.80;2.60;;;23.10;99.90;;;;;;4953763;28;20957;-79
2022/09/06 04:52:47;;;;;;;2.57;2.37;;;23.10;99.90;;;;;;4950453;28;20466;-78
2022/09/06 04:55:15;;;;;;;3.07;2.87;;;22.90;99.90;;;;;;4943660;28;20892;-79
2022/09/06 04:57:43;;;;;;;4.00;2.33;;;22.80;99.90;;;;;;4947809;28;20479;-78
2022/09/06 05:00:18;;;;;;;3.10;2.80;;;22.80;99.90;;;;;;4945783;28;20992;-79
2022/09/06 05:02:47;;;;;;;2.93;2.73;;;22.80;99.90;;;;;;4948814;28;21945;-79
2022/09/06 05:05:17;;;;;;;2.33;2.20;;;22.70;99.90;;;;;;4949412;28;20515;-79
2022/09/06 05:07:45;;;;;;;3.07;2.37;;;22.70;99.90;;;;;;4950362;28;20581;-79
2022/09/06 05:10:13;;;;;;;3.53;3.10;;;22.80;99.90;;;;;;4954070;28;20459;-79
2022/09/06 05:12:42;;;;;;;3.23;2.93;;;22.80;99.90;;;;;;4947377;28;20466;-79
2022/09/06 05:15:11;;;;;;;2.30;2.10;;;22.80;99.90;;;;;;4957497;28;21021;-79
2022/09/06 05:17:40;;;;;;;2.50;2.30;;;22.80;99.90;;;;;;4951623;28;20884;-78
2022/09/06 05:20:09;;;;;;;2.53;2.33;;;22.80;99.90;;;;;;4953674;28;20463;-79
2022/09/06 05:22:40;;;;;;;2.47;2.27;;;22.90;99.90;;;;;;4956582;28;20964;-79
2022/09/06 05:25:09;;;;;;;2.73;2.53;;;23.00;99.90;;;;;;4962555;28;20489;-79
2022/09/06 05:27:37;;;;;;;2.90;2.70;;;23.00;99.90;;;;;;4960553;28;20483;-80
2022/09/06 05:30:07;;;;;;;2.63;2.43;;;23.00;99.90;;;;;;4952172;28;20795;-78
2022/09/06 05:32:35;;;;;;;2.80;2.60;;;23.10;99.90;;;;;;4961649;28;20500;-80
2022/09/06 05:35:03;;;;;;;2.97;2.73;;;23.00;99.90;;;;;;4958748;28;20765;-79
2022/09/06 05:37:31;;;;;;;3.00;2.67;;;22.90;99.90;;;;;;4946758;28;20477;-79
2022/09/06 05:40:01;;;;;;;2.87;2.53;;;22.80;99.90;;;;;;4955417;28;20960;-80
2022/09/06 05:42:30;;;;;;;3.07;2.80;;;22.80;99.90;;;;;;4954360;28;20536;-79
2022/09/06 05:44:58;;;;;;;2.90;2.70;;;22.90;99.90;;;;;;4958139;28;20993;-79
2022/09/06 05:47:26;;;;;;;2.63;2.40;;;23.00;99.90;;;;;;4958371;28;20900;-79
2022/09/06 05:49:54;;;;;;;3.07;2.77;;;23.00;99.90;;;;;;4961791;28;20457;-79
2022/09/06 05:52:23;;;;;;;4.70;2.97;;;23.10;99.90;;;;;;4955144;28;20468;-79
2022/09/06 05:54:51;;;;;;;2.77;2.47;;;23.10;99.90;;;;;;4958295;28;20455;-73
2022/09/06 05:57:21;;;;;;;3.10;2.90;;;23.10;99.90;;;;;;4943293;28;20516;-73
2022/09/06 05:59:49;;;;;;;4.27;3.40;;;23.10;99.90;;;;;;4960805;28;20823;-77
2022/09/06 06:02:17;;;;;;;3.17;2.87;;;23.00;99.90;;;;;;4948682;28;20490;-74
2022/09/06 06:04:46;;;;;;;2.43;2.23;;;23.00;99.90;;;;;;4960531;28;20495;-73
2022/09/06 06:07:14;;;;;;;4.37;2.70;;;23.00;99.90;;;;;;4953071;28;20483;-73
2022/09/06 06:09:43;;;;;;;2.90;2.47;;;22.90;99.90;;;;;;4953316;28;20463;-75
2022/09/06 06:12:11;;;;;;;2.40;2.20;;;23.00;99.90;;;;;;4938244;29;20472;-75
2022/09/06 06:14:41;;;;;;;2.40;2.20;;;23.00;99.90;;;;;;4942886;28;20459;-73
2022/09/06 06:17:09;;;;;;;2.97;2.77;;;23.00;99.90;;;;;;4951863;28;20506;-73
2022/09/06 06:19:37;;;;;;;4.10;3.80;;;23.00;99.90;;;;;;4951881;29;20475;-73
2022/09/06 06:22:05;;;;;;;2.67;2.47;;;23.00;99.90;;;;;;4940594;29;20465;-75
2022/09/06 06:24:33;;;;;;;3.17;2.97;;;22.90;99.90;;;;;;4953866;28;20475;-78
2022/09/06 06:27:02;;;;;;;3.50;3.20;;;22.90;99.90;;;;;;4962977;28;20497;-78
2022/09/06 06:29:30;;;;;;;3.07;2.73;;;22.90;99.90;;;;;;4964753;28;20886;-77
2022/09/06 06:31:59;;;;;;;2.93;2.70;;;22.90;99.90;;;;;;4937003;29;20863;-78
2022/09/06 06:34:27;;;;;;;2.53;2.40;;;22.70;99.90;;;;;;4949299;28;20952;-79
2022/09/06 06:36:56;;;;;;;6.10;2.63;;;22.90;99.90;;;;;;4957241;28;20891;-76
2022/09/06 06:39:25;;;;;;;3.80;3.00;;;23.00;99.90;;;;;;4945837;28;20475;-79
2022/09/06 06:41:53;;;;;;;3.00;2.50;;;23.10;99.90;;;;;;4953340;28;20459;-77
2022/09/06 06:44:21;;;;;;;3.47;3.17;;;23.20;99.90;;;;;;4950207;28;20521;-78
2022/09/06 06:46:50;;;;;;;3.90;2.83;;;23.30;99.90;;;;;;4957798;28;20550;-79
2022/09/06 06:49:20;;;;;;;3.47;2.47;;;23.30;99.90;;;;;;4949724;28;20484;-79
2022/09/06 06:51:48;;;;;;;5.43;3.17;;;23.30;99.90;;;;;;4946233;28;20519;-78
2022/09/06 06:54:16;;;;;;;3.00;2.80;;;23.10;99.90;;;;;;4948284;28;20461;-79
2022/09/06 06:56:44;;;;;;;2.60;2.07;;;23.10;99.90;;;;;;4944801;28;20482;-78
2022/09/06 06:59:13;;;;;;;3.77;3.37;;;23.20;99.90;;;;;;4955152;28;20455;-76
2022/09/06 07:01:41;;;;;;;3.30;2.40;;;23.30;99.90;;;;;;4940897;28;20460;-78
2022/09/06 07:04:11;;;;;;;3.00;2.80;;;23.30;99.90;;;;;;4953180;28;20477;-78
2022/09/06 07:06:51;;;;;;;5.63;2.90;;;23.20;99.90;;;;;;4959603;28;20488;-77
2022/09/06 07:09:39;;;;;;;2.57;2.37;;;23.10;99.90;;;;;;4951829;28;20549;-77
2022/09/06 07:12:27;;;;;;;2.83;2.63;;;23.20;99.90;;;;;;4952655;28;21075;-78
2022/09/06 07:14:55;;;;;;;3.40;3.10;;;23.30;99.90;;;;;;4952755;28;20534;-78
2022/09/06 07:17:23;;;;;;;3.60;2.83;;;23.20;99.90;;;;;;4954186;28;20479;-78
2022/09/06 07:19:51;;;;;;;3.00;2.63;;;23.30;99.90;;;;;;4954258;28;20470;-79
2022/09/06 07:22:41;;;;;;;4.40;2.93;;;23.20;99.90;;;;;;4954010;28;20508;-78
2022/09/06 07:25:11;;;;;;;3.13;2.70;;;23.30;99.90;;;;;;4951283;28;20483;-78
2022/09/06 07:27:44;;;;;;;2.77;2.57;;;23.30;99.90;;;;;;4948927;28;20480;-78
2022/09/06 07:30:13;;;;;;;3.27;2.70;;;23.30;99.90;;;;;;4944914;28;20480;-79
2022/09/06 07:32:41;;;;;;;2.30;2.17;;;23.40;99.90;;;;;;4952258;28;20455;-79
2022/09/06 07:35:11;;;;;;;3.20;3.00;;;23.40;99.90;;;;;;4951418;28;20458;-78
2022/09/06 07:37:40;;;;;;;3.00;2.57;;;23.30;99.90;;;;;;4948663;28;20468;-78
2022/09/06 07:40:10;;;;;;;4.90;3.03;;;23.40;99.90;;;;;;4947045;28;20789;-78
2022/09/06 07:42:38;;;;;;;2.93;2.50;;;23.20;99.90;;;;;;4952851;28;20451;-78
2022/09/06 07:45:07;;;;;;;4.50;3.40;;;23.20;99.90;;;;;;4949580;28;20561;-78
2022/09/06 07:47:35;;;;;;;2.90;2.70;;;23.30;99.90;;;;;;4957731;28;20525;-78
2022/09/06 07:50:23;;;;;;;2.77;2.57;;;23.50;99.90;;;;;;4950537;28;20919;-79
2022/09/06 07:53:13;;;;;;;5.10;3.17;;;23.70;99.90;;;;;;4954313;28;20493;-80
2022/09/06 07:55:48;;;;;;;2.50;2.30;;;23.80;99.90;;;;;;4948284;28;20468;-78
2022/09/06 07:58:16;;;;;;;3.13;2.80;;;24.00;99.90;;;;;;4952590;28;20543;-78
2022/09/06 08:00:44;;;;;;;3.23;2.87;;;24.10;99.90;;;;;;4947717;28;21037;-78
2022/09/06 08:03:12;;;;;;;2.63;2.47;;;24.20;99.90;;;;;;4944079;28;20558;-78
2022/09/06 08:05:41;;;;;;;3.13;2.70;;;24.30;99.90;;;;;;4947212;28;20491;-78
2022/09/06 08:08:30;;;;;;;2.63;2.37;;;24.40;99.90;;;;;;4955746;28;20463;-78
2022/09/06 08:11:19;;;;;;;3.60;2.73;;;24.50;99.90;;;;;;4945126;28;20464;-80
2022/09/06 08:13:49;;;;;;;4.33;2.60;;;24.60;99.90;;;;;;4947542;28;20546;-78
2022/09/06 08:16:18;;;;;;;2.87;2.67;;;24.70;99.90;;;;;;4946288;28;20470;-80
2022/09/06 08:18:50;;;;;;;3.10;2.80;;;24.80;99.90;;;;;;4958405;28;20456;-79
2022/09/06 08:21:19;;;;;;;2.40;2.20;;;24.80;99.90;;;;;;4948518;28;21008;-78
2022/09/06 08:23:50;;;;;;;3.33;3.03;;;24.80;99.90;;;;;;4944917;28;20468;-79
2022/09/06 08:26:21;;;;;;;4.43;2.80;;;24.90;99.90;;;;;;4947399;28;21007;-78
2022/09/06 08:28:54;;;;;;;6.80;2.70;;;24.90;99.90;;;;;;4949246;28;21055;-79
2022/09/06 08:31:22;;;;;;;3.50;3.30;;;25.00;99.90;;;;;;4955389;28;20456;-78
2022/09/06 08:33:51;;;;;;;2.47;2.33;;;25.00;99.90;;;;;;4955419;28;20454;-79
2022/09/06 08:36:20;;;;;;;3.83;3.53;;;25.00;99.90;;;;;;4953048;28;20479;-79
2022/09/06 08:38:49;;;;;;;3.17;2.57;;;25.00;99.90;;;;;;4954389;28;20440;-79
2022/09/06 08:41:26;;;;;;;2.97;2.70;;;24.50;99.90;;;;;;4944121;28;20499;-79
2022/09/06 08:43:58;;;;;;;3.30;2.67;;;25.20;99.90;;;;;;4958207;28;20459;-78
2022/09/06 08:46:54;;;;;;;2.23;2.03;;;25.20;99.90;;;;;;4948272;28;20522;-79
2022/09/06 08:49:25;;;;;;;2.23;2.13;;;25.10;99.90;;;;;;4955504;28;20460;-79
2022/09/06 08:52:23;;;;;;;2.80;2.50;;;25.30;99.90;;;;;;4947500;28;20463;-78
2022/09/06 08:55:06;;;;;;;6.00;2.60;;;25.40;99.90;;;;;;4946744;28;20959;-79
2022/09/06 08:57:52;;;;;;;4.80;3.93;;;25.30;99.90;;;;;;4936087;29;20829;-79
2022/09/06 09:00:21;;;;;;;4.80;1.93;;;25.30;99.90;;;;;;4958850;28;20823;-77
2022/09/06 09:02:54;;;;;;;2.83;2.47;;;25.30;99.90;;;;;;4956517;28;20462;-79
2022/09/06 09:05:25;;;;;;;5.10;2.50;;;25.40;99.90;;;;;;4953711;28;20460;-79
2022/09/06 09:08:01;;;;;;;5.90;3.67;;;25.50;99.90;;;;;;4945908;28;20484;-78
2022/09/06 09:10:44;;;;;;;5.57;2.40;;;25.50;99.90;;;;;;4949512;28;20506;-79
2022/09/06 09:13:21;;;;;;;4.93;2.00;;;25.60;99.90;;;;;;4951933;28;20459;-78
2022/09/06 09:15:49;;;;;;;4.50;2.67;;;25.70;99.90;;;;;;4957467;28;20506;-79
2022/09/06 09:18:23;;;;;;;6.43;2.47;;;25.70;99.90;;;;;;4960029;28;20507;-79
2022/09/06 09:20:51;;;;;;;3.70;2.40;;;25.80;99.90;;;;;;4955619;28;20480;-79
2022/09/06 09:23:19;;;;;;;3.10;2.27;;;25.90;99.90;;;;;;4951827;28;20459;-79
2022/09/06 09:25:52;;;;;;;4.10;2.30;;;26.00;99.90;;;;;;4950151;28;20980;-79
2022/09/06 09:28:24;;;;;;;3.83;3.47;;;26.00;99.90;;;;;;4951176;28;20527;-79
2022/09/06 09:30:54;;;;;;;3.10;2.27;;;26.00;99.90;;;;;;4947091;28;20484;-79
2022/09/06 09:33:25;;;;;;;4.80;3.10;;;26.00;99.90;;;;;;4952724;28;20452;-80
2022/09/06 09:35:54;;;;;;;3.07;2.17;;;26.00;99.90;;;;;;4952314;28;21010;-77
2022/09/06 09:38:25;;;;;;;3.67;2.50;;;26.00;99.90;;;;;;4957099;28;20513;-79
2022/09/06 09:40:57;;;;;;;2.70;2.33;;;26.10;99.90;;;;;;4953663;28;20535;-78
2022/09/06 09:43:29;;;;;;;3.73;2.00;;;26.10;99.90;;;;;;4953141;28;20885;-79
2022/09/06 09:46:16;;;;;;;4.43;2.37;;;26.20;99.90;;;;;;4954915;28;20930;-79
2022/09/06 09:48:58;;;;;;;4.80;2.50;;;26.30;99.90;;;;;;4953796;28;20488;-78
2022/09/06 09:51:27;;;;;;;2.53;2.33;;;26.30;99.90;;;;;;4958483;28;21029;-79
2022/09/06 09:53:57;;;;;;;2.60;2.40;;;25.80;99.90;;;;;;4949129;28;20513;-78
2022/09/06 09:56:36;;;;;;;5.20;2.97;;;26.40;99.90;;;;;;4954373;28;21104;-79
2022/09/06 09:59:15;;;;;;;3.10;2.37;;;26.40;99.90;;;;;;4958670;28;20959;-79
2022/09/06 10:01:43;;;;;;;3.30;2.10;;;26.50;99.90;;;;;;4957537;28;20498;-80
2022/09/06 10:04:18;;;;;;;3.67;2.10;;;26.50;99.90;;;;;;4948609;28;20494;-79
2022/09/06 10:07:13;;;;;;;3.70;3.07;;;26.60;99.90;;;;;;4952628;28;21270;-78
2022/09/06 10:09:42;;;;;;;5.30;2.60;;;26.60;99.90;;;;;;4954598;28;20988;-79
2022/09/06 10:12:17;;;;;;;3.43;2.90;;;26.70;99.90;;;;;;4946364;29;20460;-79
2022/09/06 10:14:47;;;;;;;3.10;2.40;;;26.60;99.90;;;;;;4945320;28;20503;-80
2022/09/06 10:17:20;;;;;;;2.40;2.20;;;26.70;99.90;;;;;;4954278;28;20482;-80
2022/09/06 10:19:48;;;;;;;3.00;2.10;;;26.70;99.90;;;;;;4949420;28;20469;-80
2022/09/06 10:22:29;;;;;;;2.47;2.20;;;26.70;99.90;;;;;;4953918;28;20464;-79
2022/09/06 10:25:24;;;;;;;2.77;1.90;;;26.80;99.90;;;;;;4951929;28;20955;-78
2022/09/06 10:28:14;;;;;;;5.07;2.77;;;26.80;99.90;;;;;;4947796;28;20519;-79
2022/09/06 10:30:54;;;;;;;4.67;2.57;;;26.80;99.90;;;;;;4957022;28;20460;-80
2022/09/06 10:33:31;;;;;;;5.60;2.40;;;26.70;99.90;;;;;;4950405;28;20474;-80
2022/09/06 10:36:01;;;;;;;4.50;2.90;;;26.70;99.90;;;;;;4958291;28;20514;-81
2022/09/06 10:38:40;;;;;;;6.20;2.57;;;26.70;99.90;;;;;;4949497;28;20449;-79
2022/09/06 10:41:32;;;;;;;2.50;2.30;;;26.70;99.90;;;;;;4954045;28;20455;-80
2022/09/06 10:44:12;;;;;;;3.77;2.40;;;26.70;99.90;;;;;;4954146;28;20474;-79
2022/09/06 10:46:45;;;;;;;2.87;2.40;;;26.60;99.90;;;;;;4951399;28;20484;-80
2022/09/06 10:49:18;;;;;;;2.70;2.33;;;26.60;99.90;;;;;;4956521;28;20530;-79
2022/09/06 10:51:52;;;;;;;5.00;2.53;;;26.60;99.90;;;;;;4956474;28;20456;-79
2022/09/06 10:54:22;;;;;;;6.27;2.97;;;26.60;99.90;;;;;;4940656;28;20468;-80
2022/09/06 10:56:53;;;;;;;2.93;2.70;;;26.60;99.90;;;;;;4952875;28;20482;-80
2022/09/06 10:59:27;;;;;;;7.03;4.13;;;26.60;99.90;;;;;;4951145;28;20463;-80
2022/09/06 11:02:16;;;;;;;2.53;2.33;;;26.60;99.90;;;;;;4952844;28;20460;-80
2022/09/06 11:04:49;;;;;;;4.93;2.27;;;26.60;99.90;;;;;;4949772;28;20972;-79
2022/09/06 11:07:41;;;;;;;6.00;2.50;;;26.60;99.90;;;;;;4943895;28;20591;-80
2022/09/06 11:10:16;;;;;;;2.60;1.97;;;26.60;99.90;;;;;;4957663;28;20491;-80
2022/09/06 11:12:49;;;;;;;3.70;2.30;;;26.70;99.90;;;;;;4940835;28;20834;-80
2022/09/06 11:15:21;;;;;;;3.00;2.30;;;26.60;99.90;;;;;;4949709;28;20455;-80
2022/09/06 11:17:57;;;;;;;5.43;2.57;;;26.60;99.90;;;;;;4948787;28;20493;-80
2022/09/06 11:20:29;;;;;;;3.10;2.23;;;26.50;99.90;;;;;;4948677;28;20540;-79
2022/09/06 11:23:34;;;;;;;3.63;2.03;;;26.60;99.90;;;;;;4941788;28;20452;-79
2022/09/06 11:26:30;;;;;;;4.43;2.20;;;26.50;99.90;;;;;;4944180;28;20518;-79
2022/09/06 11:29:01;;;;;;;3.43;1.70;;;26.60;99.90;;;;;;4948091;28;20485;-79
2022/09/06 11:31:33;;;;;;;4.87;2.10;;;26.60;99.90;;;;;;4945200;28;20551;-79
2022/09/06 11:34:25;;;;;;;2.80;2.10;;;26.70;99.90;;;;;;4945349;28;20556;-79
2022/09/06 11:36:55;;;;;;;4.30;2.17;;;26.70;99.90;;;;;;4947033;28;20480;-78
2022/09/06 11:39:31;;;;;;;2.83;1.80;;;26.70;99.90;;;;;;4947580;28;20517;-79
2022/09/06 11:42:41;;;;;;;3.77;2.50;;;26.80;99.90;;;;;;4948593;28;20886;-80
2022/09/06 11:45:20;;;;;;;2.70;1.93;;;26.80;99.90;;;;;;4947477;28;20460;-79
2022/09/06 11:47:51;;;;;;;3.13;2.17;;;26.80;99.90;;;;;;4951959;28;20483;-77
2022/09/06 11:50:41;;;;;;;2.33;1.80;;;26.90;99.90;;;;;;4945093;28;20472;-78
2022/09/06 11:53:15;;;;;;;4.43;2.20;;;26.90;99.90;;;;;;4951675;28;20537;-78
2022/09/06 11:55:45;;;;;;;2.70;1.80;;;27.00;99.90;;;;;;4951638;28;20464;-79
2022/09/06 11:58:27;;;;;;;3.40;1.60;;;27.00;99.90;;;;;;4939361;28;20468;-79
2022/09/06 12:01:39;;;;;;;2.17;1.57;;;27.00;99.90;;;;;;4943034;28;20523;-78
2022/09/06 12:04:11;;;;;;;2.37;1.60;;;27.10;99.90;;;;;;4892457;29;20502;-78
2022/09/06 12:06:42;;;;;;;3.87;1.50;;;27.10;99.90;;;;;;4886870;29;20554;-78
2022/09/06 12:09:31;;;;;;;3.10;1.90;;;27.10;99.90;;;;;;4923397;28;21038;-79
2022/09/06 12:12:01;;;;;;;2.90;2.23;;;27.10;99.90;;;;;;4944884;28;20464;-79
2022/09/06 12:14:35;;;;;;;1.87;1.67;;;27.20;99.90;;;;;;4951403;28;20447;-80
2022/09/06 12:17:45;;;;;;;4.90;1.90;;;27.20;99.90;;;;;;4950744;28;20550;-79
2022/09/06 12:20:58;;;;;;;1.93;1.63;;;27.20;99.90;;;;;;4952050;28;20459;-79
2022/09/06 12:23:41;;;;;;;3.27;2.10;;;27.20;99.90;;;;;;4939520;28;20837;-79
2022/09/06 12:26:10;;;;;;;5.40;2.07;;;27.20;99.90;;;;;;4950517;28;21054;-79
2022/09/06 12:28:45;;;;;;;2.60;1.80;;;27.30;99.90;;;;;;4946408;28;20485;-78
2022/09/06 12:31:27;;;;;;;4.50;1.97;;;27.30;99.90;;;;;;4942912;28;20470;-79
2022/09/06 12:33:57;;;;;;;3.63;2.30;;;27.30;99.90;;;;;;4959251;28;20844;-77
2022/09/06 12:36:30;;;;;;;2.97;1.57;;;27.40;99.90;;;;;;4947329;28;20476;-79
2022/09/06 12:39:00;;;;;;;2.57;1.70;;;27.40;99.90;;;;;;4950918;28;20464;-79
2022/09/06 12:41:31;;;;;;;5.00;3.30;;;27.40;99.90;;;;;;4950364;28;20558;-78
2022/09/06 12:44:01;;;;;;;1.87;1.77;;;27.50;99.90;;;;;;4944904;28;20469;-78
2022/09/06 12:46:31;;;;;;;1.67;1.50;;;27.50;99.90;;;;;;4939549;28;20496;-78
2022/09/06 12:49:05;;;;;;;1.63;1.53;;;27.50;99.90;;;;;;4935667;28;20907;-78
2022/09/06 12:51:36;;;;;;;2.13;1.87;;;27.60;99.90;;;;;;4955087;28;20447;-79
2022/09/06 12:54:15;;;;;;;3.20;1.47;;;27.70;99.90;;;;;;4948839;28;20469;-79
2022/09/06 12:56:43;;;;;;;3.87;1.70;;;27.80;99.90;;;;;;4948182;28;20479;-79
2022/09/06 12:59:15;;;;;;;4.70;1.87;;;27.70;99.90;;;;;;4952674;28;21056;-79
2022/09/06 13:01:55;;;;;;;2.70;1.73;;;27.60;99.90;;;;;;4945342;28;20487;-78
2022/09/06 13:04:32;;;;;;;4.70;1.70;;;27.70;99.90;;;;;;4946786;28;20546;-79
2022/09/06 13:07:04;;;;;;;1.80;1.60;;;27.70;99.90;;;;;;4950198;28;21136;-78
2022/09/06 13:09:33;;;;;;;1.63;1.50;;;27.80;99.90;;;;;;4945018;28;20907;-79
2022/09/06 14:48:55;;;;;;;3.77;2.03;;;28.00;99.90;;;;;;4924869;29;20572;-78
2022/09/06 14:51:24;;;;;;;3.40;1.70;;;28.10;99.90;;;;;;4929518;29;20492;-79
2022/09/06 14:53:54;;;;;;;2.40;1.77;;;28.10;99.90;;;;;;4919647;28;20488;-79